Neosho, Missouri
Current Conditions -  °F | °C
As of 1:55 PM on Friday 31 Oct 2014 (Local Time) from KHFJ Reporting Station
Clear Clear  
Wind Chill: 37°   Ceiling: Unl
Heat Index: 45°   Visibility: 10mi
Dew Point: 23°   Wind: 17mph
Humidity: 43%   Direction: 350°N
Pressure: 30.36"   Gusts: 25mph
Location:  36.87°N, 94.36°W
Report Text: KHFJ 311855Z AUTO 35015G22KT 10SM CLR 07/M05 A3036 RMK AO2
Loading
Personal Weather Stations






























Interactive Weather Map
Tropical Storm Tracking
New forecast layout! Learn more

10-Day Weather Forecast

Advertisements
Track Severe Weather on mobile